Time;durP1;ratioP1;P1;durP2;ratioP2;P2;SDS_P1;SDS_P2;PMS_P1;PMS_P2;Temp;Humidity;BMP_temperature;BMP_pressure;BME280_temperature;BME280_humidity;BME280_pressure;Samples;Min_cycle;Max_cycle;Signal;HPM_P1;HPM_P2
2023/01/23 00:01:34;;;;;;;47.63;21.23;;;;;;;;;;5063495;28;20035;-68
2023/01/23 00:03:59;;;;;;;43.20;21.45;;;;;;;;;;5064540;28;20029;-69
2023/01/23 00:06:25;;;;;;;39.77;20.37;;;;;;;;;;5041186;28;20073;-69
2023/01/23 00:08:51;;;;;;;40.97;20.60;;;;;;;;;;5064156;28;20680;-69
2023/01/23 00:11:18;;;;;;;40.15;19.27;;;;;;;;;;5063576;28;20038;-68
2023/01/23 00:13:43;;;;;;;41.20;19.52;;;;;;;2.85;nan;101164.34;5076493;28;20548;-68
2023/01/23 00:16:14;;;;;;;38.88;18.85;;;;;;;2.82;nan;101172.47;5072398;28;20021;-68
2023/01/23 00:18:39;;;;;;;48.72;18.13;;;;;;;2.80;nan;101205.63;5089788;28;20049;-66
2023/01/23 00:21:07;;;;;;;37.90;17.90;;;;;;;2.80;nan;101211.63;5073224;28;20517;-67
2023/01/23 00:23:33;;;;;;;94.88;24.50;;;;;;;2.80;nan;101216.03;5074520;28;20466;-67
2023/01/23 00:26:07;;;;;;;39.03;18.48;;;;;;;2.82;nan;101204.50;5063856;28;20036;-68
2023/01/23 00:28:33;;;;;;;38.50;18.83;;;;;;;2.78;nan;101208.41;5062677;28;20423;-67
2023/01/23 00:31:08;;;;;;;39.67;18.90;;;;;;;2.77;nan;101185.94;5067736;28;20030;-68
2023/01/23 00:33:34;;;;;;;38.55;17.85;;;;;;;2.70;nan;101188.34;5064371;28;20060;-65
2023/01/23 00:36:00;;;;;;;36.35;17.55;;;;;;;2.71;nan;101197.78;5071010;28;20101;-65
2023/01/23 00:38:26;;;;;;;37.58;18.58;;;;;;;2.73;nan;101188.03;5065741;28;20028;-67
2023/01/23 00:40:53;;;;;;;35.80;17.45;;;;;;;2.66;nan;101178.38;5056509;28;20036;-64
2023/01/23 00:43:19;;;;;;;36.35;17.70;;;;;;;2.68;nan;101190.28;5064338;28;20051;-67
2023/01/23 00:45:44;;;;;;;34.03;17.85;;;;;;;2.75;nan;101204.31;5064100;28;20048;-64
2023/01/23 00:48:09;;;;;;;35.97;17.77;;;;;;;2.72;nan;101209.81;5067491;28;20020;-66
2023/01/23 00:50:35;;;;;;;32.50;16.92;;;;;;;2.71;nan;101200.38;5078847;28;20107;-66
2023/01/23 00:53:00;;;;;;;33.88;16.58;;;;;;;2.71;nan;101212.56;5077501;28;20379;-69
2023/01/23 00:55:26;;;;;;;34.42;17.40;;;;;;;2.60;nan;101177.22;5066799;28;20097;-70
2023/01/23 00:57:51;;;;;;;34.08;17.25;;;;;;;2.72;nan;101198.59;5058720;28;20052;-68
2023/01/23 01:00:17;;;;;;;33.53;18.02;;;;;;;2.74;nan;101212.25;5083099;28;20041;-69
2023/01/23 01:02:42;;;;;;;30.45;16.10;;;;;;;2.73;nan;101211.47;5071029;28;20075;-70
2023/01/23 01:05:08;;;;;;;31.70;16.10;;;;;;;2.70;nan;101193.53;5069092;28;20017;-69
2023/01/23 01:07:33;;;;;;;33.47;16.92;;;;;;;2.75;nan;101200.88;5070045;28;20518;-70
2023/01/23 01:09:59;;;;;;;33.35;16.77;;;;;;;2.71;nan;101202.97;5067303;28;20469;-70
2023/01/23 01:12:24;;;;;;;29.75;16.88;;;;;;;2.78;nan;101213.59;5067667;28;20493;-70
2023/01/23 01:14:49;;;;;;;35.55;16.00;;;;;;;2.72;nan;101194.19;5069890;28;20397;-72
2023/01/23 01:17:15;;;;;;;31.15;16.90;;;;;;;2.78;nan;101208.41;5070883;28;20043;-70
2023/01/23 01:19:40;;;;;;;37.22;18.13;;;;;;;2.89;nan;101209.91;5069102;28;20446;-69
2023/01/23 01:22:06;;;;;;;34.90;18.13;;;;;;;2.97;nan;101220.38;5066108;28;20020;-70
2023/01/23 01:24:31;;;;;;;38.03;18.35;;;;;;;3.06;nan;101211.63;5064051;28;20492;-70
2023/01/23 01:26:56;;;;;;;1784.93;400.90;;;;;;;3.09;nan;101189.66;5062317;28;20029;-69
2023/01/23 01:29:22;;;;;;;169.45;35.70;;;;;;;;;;5085898;28;20424;-69
2023/01/23 01:31:47;;;;;;;52.70;23.60;;;;;;;3.43;nan;101214.88;5073827;28;20111;-69
2023/01/23 01:34:12;;;;;;;51.67;23.65;;;;;;;3.48;nan;101215.22;5073452;28;20074;-65
2023/01/23 01:36:38;;;;;;;45.72;22.65;;;;;;;3.49;nan;101209.81;5076064;28;20028;-65
2023/01/23 01:39:04;;;;;;;51.30;22.05;;;;;;;3.46;nan;101189.31;5051166;28;20023;-70
2023/01/23 01:41:29;;;;;;;54.20;23.52;;;;;;;3.53;nan;101189.50;5071283;28;20112;-70
2023/01/23 01:43:56;;;;;;;51.72;23.15;;;;;;;3.66;nan;101202.06;5070822;28;20048;-70
2023/01/23 01:46:26;;;;;;;50.53;23.58;;;;;;;3.64;nan;101181.41;5072773;28;20047;-70
2023/01/23 01:49:04;;;;;;;50.50;23.77;;;;;;;3.80;nan;101194.44;5066755;28;20039;-70
2023/01/23 01:51:52;;;;;;;54.13;23.52;;;;;;;3.88;nan;101203.22;5064031;28;20481;-69
2023/01/23 01:54:27;;;;;;;52.72;24.25;;;;;;;3.94;nan;101206.00;5061035;28;20064;-70
2023/01/23 01:57:17;;;;;;;46.15;22.23;;;;;;;4.01;nan;101195.78;5064605;28;20029;-70
2023/01/23 02:00:14;;;;;;;46.05;22.50;;;;;;;4.05;nan;101203.09;5060407;28;20130;-69
2023/01/23 02:02:46;;;;;;;40.75;20.63;;;;;;;4.20;nan;101205.06;5060902;28;20485;-70
2023/01/23 02:05:19;;;;;;;40.58;20.98;;;;;;;4.17;nan;101174.94;5071421;28;20466;-70
2023/01/23 02:07:55;;;;;;;41.40;20.05;;;;;;;4.33;nan;101181.09;5074571;28;20028;-70
2023/01/23 02:10:22;;;;;;;37.45;19.42;;;;;;;4.50;nan;101187.09;5070351;28;20707;-70
2023/01/23 02:12:49;;;;;;;41.17;19.67;;;;;;;4.46;nan;101179.63;5073383;28;20032;-70
2023/01/23 02:15:17;;;;;;;37.97;19.73;;;;;;;4.57;nan;101188.06;5073996;28;20028;-70
2023/01/23 02:17:44;;;;;;;40.03;18.75;;;;;;;4.41;nan;101174.09;5070006;28;20031;-70
2023/01/23 02:20:25;;;;;;;30.90;17.13;;;;;;;4.51;nan;101181.72;5066650;28;20028;-70
2023/01/23 02:23:03;;;;;;;29.10;16.15;;;;;;;4.51;nan;101186.94;5063710;28;20028;-70
2023/01/23 02:25:43;;;;;;;25.90;14.82;;;;;;;4.47;nan;101194.28;5064487;28;20114;-69
2023/01/23 02:28:10;;;;;;;25.95;15.27;;;;;;;4.37;nan;101188.44;5065095;28;20036;-70
2023/01/23 02:30:36;;;;;;;26.40;15.23;;;;;;;4.36;nan;101184.22;5071233;28;20363;-70
2023/01/23 02:33:18;;;;;;;25.67;14.45;;;;;;;4.47;nan;101217.75;5070318;28;20552;-70
2023/01/23 02:35:43;;;;;;;23.85;13.68;;;;;;;4.47;nan;101206.50;5069259;28;20111;-69
2023/01/23 02:38:08;;;;;;;26.15;14.00;;;;;;;4.51;nan;101199.19;5074081;28;20093;-69
2023/01/23 02:40:37;;;;;;;30.52;14.82;;;;;;;4.32;nan;101161.22;5073498;28;20390;-67
2023/01/23 02:43:04;;;;;;;21.73;12.95;;;;;;;4.56;nan;101194.28;5078177;28;20051;-70
2023/01/23 02:45:30;;;;;;;22.65;12.68;;;;;;;4.57;nan;101194.09;5076299;28;20135;-70
2023/01/23 02:47:55;;;;;;;22.50;13.00;;;;;;;4.65;nan;101195.91;5073006;28;20116;-70
2023/01/23 02:50:21;;;;;;;22.00;12.80;;;;;;;4.62;nan;101189.22;5073141;28;20031;-70
2023/01/23 02:52:48;;;;;;;21.63;12.25;;;;;;;4.74;nan;101194.91;5070010;28;20032;-70
2023/01/23 02:55:13;;;;;;;24.42;12.60;;;;;;;4.76;nan;101215.59;5068957;28;20028;-69
2023/01/23 02:57:39;;;;;;;20.00;11.52;;;;;;;4.71;nan;101208.25;5077114;28;20042;-70
2023/01/23 03:00:18;;;;;;;21.77;12.30;;;;;;;4.73;nan;101219.34;5069828;28;20032;-70
2023/01/23 03:02:49;;;;;;;20.02;11.45;;;;;;;4.38;nan;101157.94;5072981;28;20748;-70
2023/01/23 03:05:16;;;;;;;22.83;12.32;;;;;;;4.64;nan;101196.88;5070276;28;20028;-70
2023/01/23 03:07:41;;;;;;;24.20;13.02;;;;;;;4.68;nan;101212.03;5076641;28;20443;-70
2023/01/23 03:10:09;;;;;;;22.98;12.15;;;;;;;4.63;nan;101203.88;5074809;28;20028;-70
2023/01/23 03:12:36;;;;;;;21.55;12.65;;;;;;;4.62;nan;101204.03;5071346;28;20382;-70
2023/01/23 03:15:04;;;;;;;20.30;12.05;;;;;;;4.63;nan;101216.13;5064703;28;20073;-71
2023/01/23 03:17:31;;;;;;;21.20;12.02;;;;;;;4.63;nan;101223.94;5069339;28;20028;-70
2023/01/23 03:19:56;;;;;;;21.58;12.27;;;;;;;4.63;nan;101219.53;5073612;28;20024;-69
2023/01/23 03:22:22;;;;;;;21.80;12.75;;;;;;;4.62;nan;101222.28;5071542;28;20386;-70
2023/01/23 03:24:47;;;;;;;25.73;13.55;;;;;;;4.62;nan;101227.50;5076473;28;20033;-70
2023/01/23 03:27:13;;;;;;;22.63;13.02;;;;;;;4.56;nan;101210.75;5072780;28;20021;-70
2023/01/23 03:32:24;;;;;;;23.10;12.38;;;;;;;4.59;nan;101204.38;5070571;28;20074;-70
2023/01/23 03:34:50;;;;;;;21.10;12.77;;;;;;;4.53;nan;101199.84;5068860;28;20035;-70
2023/01/23 03:37:18;;;;;;;20.23;12.23;;;;;;;4.63;nan;101208.28;5080370;28;20031;-70
2023/01/23 03:42:28;;;;;;;22.42;12.20;;;;;;;4.69;nan;101211.06;5070094;28;20048;-70
2023/01/23 03:44:54;;;;;;;20.63;12.15;;;;;;;4.64;nan;101192.44;5068994;28;20041;-68
2023/01/23 03:47:19;;;;;;;22.08;13.18;;;;;;;4.68;nan;101206.81;5066919;28;20029;-70
2023/01/23 03:49:45;;;;;;;22.10;13.13;;;;;;;4.68;nan;101208.59;5067011;28;20040;-70
2023/01/23 03:52:10;;;;;;;22.60;12.90;;;;;;;4.64;nan;101209.91;5064910;28;20020;-70
2023/01/23 03:54:36;;;;;;;19.00;11.88;;;;;;;4.62;nan;101209.25;5069125;28;20024;-70
2023/01/23 03:57:01;;;;;;;19.55;11.75;;;;;;;4.66;nan;101206.16;5074262;28;20074;-69
2023/01/23 03:59:27;;;;;;;19.83;11.43;;;;;;;4.65;nan;101206.34;5075472;28;20036;-69
2023/01/23 04:01:52;;;;;;;20.25;11.80;;;;;;;4.72;nan;101209.06;5079685;28;20093;-70
2023/01/23 04:04:17;;;;;;;21.65;12.05;;;;;;;4.74;nan;101210.56;5078076;28;20035;-70
2023/01/23 04:06:43;;;;;;;18.20;11.10;;;;;;;4.71;nan;101210.88;5073407;28;20021;-70
2023/01/23 04:09:08;;;;;;;20.70;11.90;;;;;;;4.70;nan;101211.88;5075206;28;20027;-70
2023/01/23 04:11:33;;;;;;;21.88;11.38;;;;;;;4.78;nan;101222.28;5070970;28;20390;-70
2023/01/23 04:13:59;;;;;;;20.20;11.45;;;;;;;4.61;nan;101184.97;5068053;28;20032;-69
2023/01/23 04:16:26;;;;;;;17.73;10.73;;;;;;;4.82;nan;101220.16;5075285;28;20029;-70
2023/01/23 04:18:53;;;;;;;19.48;10.80;;;;;;;4.88;nan;101229.91;5068483;28;20485;-70
2023/01/23 04:21:18;;;;;;;20.27;11.30;;;;;;;4.92;nan;101240.84;5067832;28;20034;-69
2023/01/23 04:23:43;;;;;;;18.95;10.88;;;;;;;4.91;nan;101232.22;5067671;28;20028;-69
2023/01/23 04:26:09;;;;;;;20.02;10.77;;;;;;;4.92;nan;101228.59;5066139;28;20025;-70
2023/01/23 04:28:34;;;;;;;20.67;11.48;;;;;;;4.92;nan;101219.97;5071423;28;20048;-69
2023/01/23 04:31:00;;;;;;;20.10;10.65;;;;;;;4.97;nan;101230.72;5067147;28;20474;-69
2023/01/23 04:33:25;;;;;;;17.70;10.63;;;;;;;4.98;nan;101229.72;5070849;28;20094;-67
2023/01/23 04:35:59;;;;;;;16.50;9.90;;;;;;;5.03;nan;101228.25;5077473;28;20107;-66
2023/01/23 04:38:27;;;;;;;17.20;10.85;;;;;;;5.05;nan;101236.75;5067030;28;20391;-67
2023/01/23 04:40:52;;;;;;;20.60;10.55;;;;;;;4.98;nan;101230.56;5065180;28;20100;-67
2023/01/23 04:43:18;;;;;;;17.40;11.07;;;;;;;5.00;nan;101238.22;5068979;28;20024;-66
2023/01/23 04:45:44;;;;;;;18.83;11.30;;;;;;;4.92;nan;101225.19;5069567;28;20041;-66
2023/01/23 04:48:11;;;;;;;17.88;10.45;;;;;;;4.58;nan;101184.50;5069870;28;20539;-69
2023/01/23 04:50:36;;;;;;;18.88;10.43;;;;;;;4.74;nan;101212.34;5071334;28;20048;-70
2023/01/23 04:53:02;;;;;;;19.52;10.50;;;;;;;4.82;nan;101228.78;5056657;28;20458;-69
2023/01/23 04:55:28;;;;;;;15.52;10.07;;;;;;;4.76;nan;101226.84;5085003;28;20028;-70
2023/01/23 04:57:54;;;;;;;22.23;10.70;;;;;;;4.77;nan;101228.50;5072380;28;20024;-69
2023/01/23 05:00:20;;;;;;;17.45;10.15;;;;;;;4.71;nan;101228.31;5075476;28;20082;-68
2023/01/23 05:02:46;;;;;;;18.20;10.27;;;;;;;4.61;nan;101229.31;5071769;28;20028;-70
2023/01/23 05:05:12;;;;;;;19.02;9.80;;;;;;;4.68;nan;101250.34;5064310;28;20024;-69
2023/01/23 05:07:38;;;;;;;16.67;10.23;;;;;;;4.61;nan;101237.13;5061497;28;20390;-70
2023/01/23 05:10:04;;;;;;;16.00;9.77;;;;;;;4.63;nan;101239.59;5059173;28;20026;-70
2023/01/23 05:12:29;;;;;;;17.77;10.52;;;;;;;4.57;nan;101245.47;5070700;28;20108;-69
2023/01/23 05:14:54;;;;;;;17.70;10.38;;;;;;;4.51;nan;101222.66;5071378;28;20016;-70
2023/01/23 05:17:20;;;;;;;17.95;9.90;;;;;;;4.42;nan;101229.66;5071301;28;20115;-69
2023/01/23 05:19:45;;;;;;;22.60;10.60;;;;;;;4.35;nan;101226.06;5072472;28;20016;-70
2023/01/23 05:22:11;;;;;;;18.55;10.95;;;;;;;4.31;nan;101229.97;5070874;28;20028;-70
2023/01/23 05:24:36;;;;;;;20.65;11.55;;;;;;;4.29;nan;101229.34;5072126;28;20028;-70
2023/01/23 05:27:02;;;;;;;153.80;46.45;;;;;;;4.26;nan;101235.69;5075579;28;20074;-70
2023/01/23 05:29:27;;;;;;;34.78;15.63;;;;;;;4.31;nan;101241.25;5073661;28;20024;-70
2023/01/23 05:31:52;;;;;;;21.17;11.68;;;;;;;4.32;nan;101249.88;5067671;28;20085;-70
2023/01/23 05:34:18;;;;;;;21.15;10.82;;;;;;;4.29;nan;101243.19;5069592;28;20132;-70
2023/01/23 05:36:43;;;;;;;18.75;10.15;;;;;;;4.33;nan;101244.47;5065365;28;20039;-69
2023/01/23 05:39:08;;;;;;;18.83;10.60;;;;;;;4.34;nan;101251.34;5065177;28;20016;-69
2023/01/23 05:41:34;;;;;;;20.75;10.68;;;;;;;4.34;nan;101259.16;5062207;28;20028;-70
2023/01/23 05:43:59;;;;;;;18.25;10.45;;;;;;;4.34;nan;101256.56;5067841;28;20481;-67
2023/01/23 05:46:25;;;;;;;17.42;10.23;;;;;;;4.30;nan;101246.63;5065250;28;20089;-68
2023/01/23 05:48:51;;;;;;;32.90;16.05;;;;;;;4.36;nan;101256.41;5065347;28;20108;-66
2023/01/23 05:51:17;;;;;;;61.45;26.55;;;;;;;4.36;nan;101264.22;5069920;28;20052;-66
2023/01/23 05:53:43;;;;;;;91.93;38.63;;;;;;;4.34;nan;101269.59;5077647;28;20089;-65
2023/01/23 05:56:09;;;;;;;62.47;27.63;;;;;;;4.34;nan;101260.97;5077106;28;20552;-66
2023/01/23 05:58:34;;;;;;;36.10;18.67;;;;;;;4.40;nan;101268.13;5072152;28;20029;-66
2023/01/23 06:01:02;;;;;;;27.85;14.63;;;;;;;4.34;nan;101258.34;5069505;28;20109;-67
2023/01/23 06:03:28;;;;;;;23.25;12.90;;;;;;;4.38;nan;101272.69;5060481;28;20557;-67
2023/01/23 06:05:53;;;;;;;19.88;11.77;;;;;;;4.33;nan;101265.34;5079064;28;20086;-66
2023/01/23 06:08:18;;;;;;;21.65;11.32;;;;;;;4.40;nan;101268.13;5068119;28;20036;-67
2023/01/23 06:10:44;;;;;;;27.65;13.60;;;;;;;4.47;nan;101272.50;5067415;28;20474;-67
2023/01/23 06:13:09;;;;;;;22.98;12.88;;;;;;;4.46;nan;101263.06;5067352;28;20150;-67
2023/01/23 06:15:35;;;;;;;23.58;13.15;;;;;;;4.48;nan;101261.13;5071190;28;20031;-67
2023/01/23 06:18:00;;;;;;;22.15;12.48;;;;;;;4.58;nan;101267.97;5072189;28;20024;-67
2023/01/23 06:20:26;;;;;;;22.25;12.48;;;;;;;4.57;nan;101280.19;5073952;28;20223;-67
2023/01/23 06:22:51;;;;;;;21.48;10.63;;;;;;;4.58;nan;101279.22;5070627;28;20051;-67
2023/01/23 06:25:19;;;;;;;21.60;11.13;;;;;;;4.65;nan;101282.78;5070912;28;20040;-67
2023/01/23 06:27:45;;;;;;;19.92;11.90;;;;;;;4.65;nan;101282.00;5079792;28;20032;-67
2023/01/23 06:30:11;;;;;;;20.95;10.90;;;;;;;4.65;nan;101276.78;5069759;28;20127;-68
2023/01/23 06:32:36;;;;;;;18.08;11.27;;;;;;;4.73;nan;101291.59;5082967;28;20029;-66
2023/01/23 06:35:02;;;;;;;16.98;10.38;;;;;;;4.76;nan;101299.91;5073730;28;20374;-68
2023/01/23 06:37:27;;;;;;;18.65;9.88;;;;;;;4.77;nan;101300.75;5072506;28;20074;-68
2023/01/23 06:39:53;;;;;;;17.65;9.90;;;;;;;4.79;nan;101296.97;5070864;28;20028;-69
2023/01/23 06:42:18;;;;;;;17.92;9.77;;;;;;;4.72;nan;101282.97;5067552;28;20033;-68
2023/01/23 06:44:43;;;;;;;17.90;9.63;;;;;;;4.82;nan;101298.44;5066927;28;20033;-66
2023/01/23 06:47:09;;;;;;;20.23;10.77;;;;;;;4.82;nan;101296.66;5070744;28;20108;-66
2023/01/23 06:49:34;;;;;;;20.02;11.32;;;;;;;4.85;nan;101301.53;5056455;28;20028;-66
2023/01/23 06:52:00;;;;;;;18.67;10.65;;;;;;;4.82;nan;101286.22;5069559;28;20111;-67
2023/01/23 06:54:25;;;;;;;21.25;11.15;;;;;;;4.87;nan;101296.16;5072677;28;20024;-67
2023/01/23 06:56:51;;;;;;;23.48;11.85;;;;;;;4.84;nan;101292.06;5063038;28;20036;-67
2023/01/23 06:59:16;;;;;;;24.75;12.73;;;;;;;4.77;nan;101275.44;5067160;28;20024;-67
2023/01/23 07:01:41;;;;;;;25.13;11.90;;;;;;;4.88;nan;101287.31;5064842;28;20031;-67
2023/01/23 07:04:10;;;;;;;21.50;11.23;;;;;;;4.85;nan;101272.00;5073428;28;20022;-66
2023/01/23 07:06:35;;;;;;;18.00;10.60;;;;;;;4.93;nan;101285.03;5073252;28;20036;-68
2023/01/23 07:09:01;;;;;;;16.00;9.60;;;;;;;4.97;nan;101288.16;5074950;28;20025;-68
2023/01/23 07:11:26;;;;;;;18.50;10.10;;;;;;;5.02;nan;101293.69;5074716;28;20036;-68
2023/01/23 07:13:52;;;;;;;17.45;10.15;;;;;;;4.96;nan;101286.53;5072873;28;20034;-67
2023/01/23 07:16:18;;;;;;;16.75;10.13;;;;;;;5.03;nan;101293.53;5069930;28;20067;-67
2023/01/23 07:18:44;;;;;;;17.27;10.30;;;;;;;5.11;nan;101292.69;5070985;28;20036;-71
2023/01/23 07:21:10;;;;;;;19.45;11.88;;;;;;;5.08;nan;101293.84;5071165;28;20046;-67
2023/01/23 07:23:35;;;;;;;29.83;12.77;;;;;;;4.90;nan;101272.31;5074761;28;20107;-70
2023/01/23 07:26:03;;;;;;;20.75;11.30;;;;;;;5.08;nan;101293.03;5062767;28;20462;-71
2023/01/23 07:28:29;;;;;;;26.20;14.32;;;;;;;5.18;nan;101303.28;5069502;28;20016;-70
2023/01/23 07:30:56;;;;;;;32.88;20.63;;;;;;;5.23;nan;101298.38;5062851;28;20115;-70
2023/01/23 07:33:21;;;;;;;37.40;22.10;;;;;;;5.22;nan;101294.94;5067183;28;20803;-71
2023/01/23 07:35:47;;;;;;;36.47;21.33;;;;;;;5.27;nan;101300.47;5068834;28;20025;-70
2023/01/23 07:38:12;;;;;;;33.40;19.77;;;;;;;5.35;nan;101304.06;5067048;28;20024;-70
2023/01/23 07:40:40;;;;;;;34.03;19.27;;;;;;;5.43;nan;101311.84;5071823;28;20502;-69
2023/01/23 07:43:05;;;;;;;28.52;17.25;;;;;;;5.48;nan;101315.59;5079324;28;20497;-69
2023/01/23 07:45:30;;;;;;;28.60;16.00;;;;;;;5.52;nan;101319.47;5074028;28;20037;-66
2023/01/23 07:47:56;;;;;;;27.38;15.52;;;;;;;5.51;nan;101301.38;5077378;28;20394;-65
2023/01/23 07:50:21;;;;;;;18.35;10.80;;;;;;;5.60;nan;101305.56;5072916;28;20120;-62
2023/01/23 07:52:46;;;;;;;15.75;8.98;;;;;;;5.80;nan;101318.25;5071547;28;20622;-63
2023/01/23 07:55:12;;;;;;;17.00;9.48;;;;;;;5.76;nan;101320.38;5066498;28;20038;-62
2023/01/23 07:57:37;;;;;;;12.43;7.60;;;;;;;5.82;nan;101326.72;5068654;28;20039;-65
2023/01/23 08:00:04;;;;;;;14.80;8.13;;;;;;;5.87;nan;101319.19;5060039;28;20013;-64
2023/01/23 08:02:29;;;;;;;16.67;8.43;;;;;;;5.99;nan;101336.16;5063442;28;20414;-66
2023/01/23 08:04:55;;;;;;;11.95;7.50;;;;;;;6.05;nan;101335.44;5065194;28;20029;-63
2023/01/23 08:07:20;;;;;;;13.52;8.57;;;;;;;6.09;nan;101333.31;5069179;28;20032;-66
2023/01/23 08:09:45;;;;;;;16.30;8.50;;;;;;;;;;5063248;28;20338;-65
2023/01/23 08:12:11;;;;;;;14.67;8.33;;;;;;;;;;5065743;28;20083;-69
2023/01/23 08:14:36;;;;;;;13.98;7.90;;;;;;;;;;5067061;28;20074;-70
2023/01/23 08:17:01;;;;;;;13.50;7.20;;;;;;;;;;5064297;28;20036;-67
2023/01/23 08:19:27;;;;;;;10.67;7.00;;;;;;;;;;5063355;28;20114;-66
2023/01/23 08:21:52;;;;;;;14.30;8.13;;;;;;;;;;5066671;28;20806;-67
2023/01/23 08:24:18;;;;;;;12.02;7.40;;;;;;;;;;5078476;28;20127;-68
2023/01/23 08:26:43;;;;;;;13.57;7.75;;;;;;;;;;5063355;28;20032;-68
2023/01/23 08:29:09;;;;;;;11.90;7.38;;;;;;;;;;5064750;28;20056;-67
2023/01/23 08:31:35;;;;;;;15.02;8.30;;;;;;;;;;5066362;28;20027;-68
2023/01/23 08:34:00;;;;;;;15.13;8.30;;;;;;;;;;5068550;28;20024;-69
2023/01/23 08:36:25;;;;;;;12.70;8.63;;;;;;;;;;5065100;28;20064;-68
2023/01/23 08:38:51;;;;;;;15.50;9.25;;;;;;;;;;5063209;28;20073;-67
2023/01/23 08:41:16;;;;;;;12.13;7.82;;;;;;;;;;5072379;28;20033;-66
2023/01/23 08:43:42;;;;;;;13.50;8.03;;;;;;;;;;5072207;28;20043;-68
2023/01/23 08:46:07;;;;;;;12.13;7.53;;;;;;;;;;5071017;28;20047;-69
2023/01/23 08:48:34;;;;;;;14.00;8.18;;;;;;;;;;5061999;28;20029;-69
2023/01/23 08:51:19;;;;;;;14.27;7.97;;;;;;;;;;5077110;28;20023;-69
2023/01/23 08:53:44;;;;;;;14.90;8.13;;;;;;;;;;5061605;28;20064;-68
2023/01/23 08:56:14;;;;;;;14.40;8.60;;;;;;;;;;5065162;28;20119;-69
2023/01/23 08:58:39;;;;;;;;;;;;;;;;;;5071400;28;20024;-70
2023/01/23 09:01:09;;;;;;;16.35;7.88;;;;;;;;;;5072770;28;19912;-70
2023/01/23 09:03:34;;;;;;;13.02;8.07;;;;;;;;;;5071149;28;20028;-69
2023/01/23 09:06:00;;;;;;;11.03;7.10;;;;;;;;;;5072032;28;20459;-69
2023/01/23 09:08:25;;;;;;;12.82;6.60;;;;;;;;;;5071637;28;20063;-70
2023/01/23 09:10:51;;;;;;;13.57;6.60;;;;;;;;;;5072610;28;20028;-69
2023/01/23 09:13:18;;;;;;;11.43;7.13;;;;;;;;;;5071277;28;20390;-69
2023/01/23 09:15:43;;;;;;;11.23;6.28;;;;;;;;;;5069956;28;20281;-69
2023/01/23 09:18:08;;;;;;;10.77;6.93;;;;;;;;;;5062278;28;20398;-69
2023/01/23 09:20:34;;;;;;;10.43;6.77;;;;;;;7.68;nan;101314.03;5065824;28;20397;-70
2023/01/23 09:22:59;;;;;;;11.27;6.18;;;;;;;7.78;nan;101330.31;5064184;28;20270;-69
2023/01/23 09:25:24;;;;;;;12.45;6.85;;;;;;;7.76;nan;101327.06;5066247;28;20020;-69
2023/01/23 09:27:50;;;;;;;14.07;7.32;;;;;;;7.84;nan;101328.75;5066067;28;20466;-69
2023/01/23 09:30:15;;;;;;;11.57;7.18;;;;;;;7.89;nan;101316.72;5065467;28;20056;-69
2023/01/23 09:32:41;;;;;;;11.27;7.25;;;;;;;7.91;nan;101313.13;5065214;28;20033;-69
2023/01/23 09:35:06;;;;;;;16.38;7.25;;;;;;;;;;5072399;28;20055;-69
2023/01/23 09:37:58;;;;;;;11.77;7.60;;;;;;;;;;5077051;28;20019;-70
2023/01/23 09:40:21;;;;;;;12.20;6.78;;;;;;;8.15;nan;101320.63;5073897;28;20499;-69
2023/01/23 09:42:46;;;;;;;16.55;7.85;;;;;;;8.13;nan;101312.13;5076951;28;20090;-70
2023/01/23 09:45:18;;;;;;;12.32;7.03;;;;;;;8.22;nan;101316.28;5072924;28;20522;-70
2023/01/23 09:48:14;;;;;;;12.10;7.07;;;;;;;8.29;nan;101311.91;5069724;28;20103;-69
2023/01/23 09:50:55;;;;;;;10.52;7.07;;;;;;;8.35;nan;101307.69;5063465;28;20032;-69
2023/01/23 09:53:25;;;;;;;12.02;7.03;;;;;;;8.46;nan;101322.19;5066900;28;20457;-69
2023/01/23 09:56:04;;;;;;;14.40;7.05;;;;;;;8.51;nan;101319.81;5066006;28;20564;-69
2023/01/23 09:58:34;;;;;;;;;;;;;;;8.58;nan;101320.69;5068167;28;20098;-69
2023/01/23 10:01:00;;;;;;;9.63;6.53;;;;;;;8.64;nan;101333.06;5070544;28;19919;-69
2023/01/23 10:03:30;;;;;;;18.45;7.00;;;;;;;8.77;nan;101321.84;5081172;28;20030;-69
2023/01/23 10:06:13;;;;;;;12.85;6.78;;;;;;;8.87;nan;101324.13;5072415;28;20551;-69
2023/01/23 10:08:51;;;;;;;11.45;6.18;;;;;;;8.98;nan;101318.38;5068273;28;20120;-68
2023/01/23 10:11:28;;;;;;;8.75;6.07;;;;;;;8.97;nan;101300.97;5068313;28;20367;-68
2023/01/23 10:14:15;;;;;;;11.05;6.40;;;;;;;9.15;nan;101309.19;5069902;28;20395;-68
2023/01/23 10:16:48;;;;;;;12.65;4.97;;;;;;;9.45;nan;101310.75;5072277;28;20048;-68
2023/01/23 10:19:22;;;;;;;9.55;5.35;;;;;;;9.61;nan;101313.06;5070226;28;20051;-68
2023/01/23 10:21:58;;;;;;;9.23;4.88;;;;;;;9.80;nan;101304.44;5073996;28;20033;-67
2023/01/23 10:24:26;;;;;;;9.50;4.28;;;;;;;10.13;nan;101314.25;5068159;28;20487;-68
2023/01/23 10:26:55;;;;;;;9.00;4.25;;;;;;;10.19;nan;101296.84;5072537;28;20047;-68
2023/01/23 10:29:31;;;;;;;7.75;4.97;;;;;;;10.39;nan;101308.25;5071178;28;20031;-67
2023/01/23 10:32:00;;;;;;;9.40;4.88;;;;;;;10.41;nan;101303.59;5071493;28;20135;-68
2023/01/23 10:34:43;;;;;;;8.60;5.00;;;;;;;10.45;nan;101306.63;5073721;28;20017;-68
2023/01/23 10:37:34;;;;;;;7.25;4.70;;;;;;;10.43;nan;101303.38;5074062;28;20111;-68
2023/01/23 10:40:06;;;;;;;5.75;4.05;;;;;;;10.47;nan;101315.13;5072348;28;20032;-68
2023/01/23 10:42:32;;;;;;;7.43;4.38;;;;;;;10.51;nan;101316.38;5068039;28;20390;-68
2023/01/23 10:44:57;;;;;;;9.57;4.93;;;;;;;10.57;nan;101312.09;5061952;28;20054;-67
2023/01/23 10:47:34;;;;;;;10.02;4.32;;;;;;;10.56;nan;101303.41;5068802;28;20405;-68
2023/01/23 10:50:00;;;;;;;7.18;4.32;;;;;;;10.74;nan;101294.06;5061825;28;20066;-67
2023/01/23 10:52:43;;;;;;;7.97;4.80;;;;;;;11.00;nan;101311.69;5088531;28;20030;-67
2023/01/23 10:55:30;;;;;;;8.55;4.68;;;;;;;11.14;nan;101309.84;5066583;28;20482;-68
2023/01/23 10:58:03;;;;;;;9.68;4.28;;;;;;;11.33;nan;101313.44;5064548;28;20034;-68
2023/01/23 11:00:38;;;;;;;6.95;4.20;;;;;;;11.48;nan;101304.25;5067941;28;20032;-68
2023/01/23 11:03:19;;;;;;;8.68;3.83;;;;;;;11.62;nan;101294.47;5069341;28;20059;-69
2023/01/23 11:05:51;;;;;;;6.97;3.55;;;;;;;11.75;nan;101290.13;5073042;28;20027;-67
2023/01/23 11:08:23;;;;;;;6.15;3.50;;;;;;;11.76;nan;101289.13;5068149;28;20086;-69
2023/01/23 11:10:49;;;;;;;8.55;3.88;;;;;;;11.78;nan;101282.63;5067818;28;20024;-69
2023/01/23 11:13:42;;;;;;;10.43;4.05;;;;;;;11.87;nan;101270.81;5066552;28;20054;-70
2023/01/23 11:16:16;;;;;;;4.10;2.38;;;;;;;11.96;nan;101266.09;5062620;28;20040;-70
2023/01/23 11:18:56;;;;;;;6.07;3.10;;;;;;;11.95;nan;101259.22;5069643;28;20017;-69
2023/01/23 11:21:32;;;;;;;5.30;2.80;;;;;;;12.03;nan;101276.63;5085099;28;20024;-69
2023/01/23 11:24:15;;;;;;;6.93;2.67;;;;;;;11.95;nan;101261.03;5064880;28;20032;-69
2023/01/23 11:26:41;;;;;;;4.45;2.47;;;;;;;12.06;nan;101269.06;5066120;28;20025;-69
2023/01/23 11:29:24;;;;;;;4.28;2.40;;;;;;;12.03;nan;101273.97;5072617;28;20069;-69
2023/01/23 11:31:56;;;;;;;6.60;2.78;;;;;;;11.76;nan;101228.44;5087642;28;20024;-69
2023/01/23 11:34:28;;;;;;;7.13;2.50;;;;;;;11.84;nan;101252.72;5072430;28;20040;-69
2023/01/23 11:36:58;;;;;;;5.13;2.35;;;;;;;11.90;nan;101269.59;5069647;28;20121;-67
2023/01/23 11:40:01;;;;;;;5.30;2.22;;;;;;;11.87;nan;101262.88;5063074;28;20044;-67
2023/01/23 11:42:28;;;;;;;4.50;2.40;;;;;;;11.86;nan;101274.44;5067979;28;20148;-67
2023/01/23 11:44:57;;;;;;;5.75;2.40;;;;;;;11.85;nan;101274.66;5067189;28;20048;-67
2023/01/23 11:47:44;;;;;;;5.43;2.45;;;;;;;11.83;nan;101272.25;5066954;28;20028;-67
2023/01/23 11:50:33;;;;;;;7.47;3.05;;;;;;;11.86;nan;101273.66;5063169;28;20033;-67
2023/01/23 11:53:02;;;;;;;8.77;3.10;;;;;;;11.89;nan;101267.97;5068240;28;20032;-66
2023/01/23 11:55:46;;;;;;;7.80;3.30;;;;;;;11.96;nan;101265.28;5071066;28;20472;-67
2023/01/23 11:58:23;;;;;;;6.05;2.53;;;;;;;11.96;nan;101275.84;5072400;28;20410;-65
2023/01/23 12:01:11;;;;;;;10.18;3.20;;;;;;;11.95;nan;101268.94;5067226;28;20040;-67
2023/01/23 12:04:08;;;;;;;4.97;2.70;;;;;;;11.97;nan;101275.66;5064021;28;20028;-66
2023/01/23 12:06:34;;;;;;;3.78;2.45;;;;;;;12.00;nan;101277.06;5069728;28;20024;-65